Time;durP1;ratioP1;P1;durP2;ratioP2;P2;SDS_P1;SDS_P2;PMS_P1;PMS_P2;Temp;Humidity;BMP_temperature;BMP_pressure;BME280_temperature;BME280_humidity;BME280_pressure;Samples;Min_cycle;Max_cycle;Signal;HPM_P1;HPM_P2
2022/04/15 00:01:16;;;;;;;;;;;;;;;;;;5094217;28;19954;-73
2022/04/15 00:03:43;;;;;;;;;;;;;;;;;;5094539;28;19908;-73
2022/04/15 00:06:10;;;;;;;;;;;;;;;;;;5094160;28;19908;-73
2022/04/15 00:08:36;;;;;;;;;;;;;;;;;;5094361;28;19923;-73
2022/04/15 00:11:02;;;;;;;;;;;;;;;;;;5094387;28;19973;-73
2022/04/15 00:13:29;;;;;;;;;;;;;;;;;;5094330;28;20288;-72
2022/04/15 00:15:55;;;;;;;;;;;;;;;;;;5094286;28;19908;-73
2022/04/15 00:18:21;;;;;;;;;;;;;;;;;;5094741;28;19916;-73
2022/04/15 00:20:47;;;;;;;;;;;;;;;;;;5093853;28;20292;-74
2022/04/15 00:23:13;;;;;;;;;;;;;;;;;;5093960;28;19912;-74
2022/04/15 00:25:39;;;;;;;;;;;;;;;;;;5094809;28;19916;-72
2022/04/15 00:28:05;;;;;;;;;;;;;;;;;;5093715;28;20264;-72
2022/04/15 00:30:31;;;;;;;;;;;;;;;;;;5094151;28;19908;-72
2022/04/15 00:32:57;;;;;;;;;;;;;;;;;;5094029;28;20340;-73
2022/04/15 00:35:23;;;;;;;;;;;;;;;;;;5093726;28;19919;-73
2022/04/15 00:37:49;;;;;;;;;;;;;;;;;;5094017;28;20342;-72
2022/04/15 00:40:15;;;;;;;;;;;;;;;;;;5094554;28;19908;-72
2022/04/15 00:42:41;;;;;;;;;;;;;;;;;;5093677;28;19919;-71
2022/04/15 00:45:09;;;;;;;;;;;;;;;;;;5093955;28;20368;-73
2022/04/15 00:47:35;;;;;;;;;;;;;;;;;;5092317;28;19920;-72
2022/04/15 00:50:01;;;;;;;;;;;;;;;;;;5093475;28;19969;-72
2022/04/15 00:52:27;;;;;;;;;;;;;;;;;;5092659;28;19908;-72
2022/04/15 00:54:53;;;;;;;;;;;;;;;;;;5093931;28;19909;-72
2022/04/15 00:57:22;;;;;;;;;;;;;;;;;;5093520;28;20257;-74
2022/04/15 00:59:49;;;;;;;;;;;;;;;;;;5093879;28;19909;-72
2022/04/15 01:02:15;;;;;;;;;;;;;;;;;;5094272;28;19961;-72
2022/04/15 01:04:41;;;;;;;;;;;;;;;;;;5093437;28;20418;-72
2022/04/15 01:07:07;;;;;;;;;;;;;;;;;;5092415;28;19916;-72
2022/04/15 01:09:34;;;;;;;;;;;;;;;;;;5093541;28;19908;-72
2022/04/15 01:12:00;;;;;;;;;;;;;;;;;;5093678;28;20007;-72
2022/04/15 01:14:26;;;;;;;;;;;;;;;;;;5093700;28;19912;-72
2022/04/15 01:16:52;;;;;;;;;;;;;;;;;;5093678;28;19974;-72
2022/04/15 01:19:19;;;;;;;;;;;;;;;;;;5093634;28;20276;-72
2022/04/15 01:21:45;;;;;;;;;;;;;;;;;;5093573;28;20436;-72
2022/04/15 01:24:11;;;;;;;;;;;;;;;;;;5093156;28;19992;-72
2022/04/15 01:26:37;;;;;;;;;;;;;;;;;;5092240;28;19915;-72
2022/04/15 01:29:03;;;;;;;;;;;;;;;;;;5093567;28;19999;-71
2022/04/15 01:31:31;;;;;;;;;;;;;;;;;;5093467;28;19953;-72
2022/04/15 01:33:57;;;;;;;;;;;;;;;;;;5094467;28;19908;-72
2022/04/15 01:36:23;;;;;;;;;;;;;;;;;;5097396;28;19912;-73
2022/04/15 01:38:49;;;;;;;;;;;;;;;;;;5096896;28;19916;-72
2022/04/15 01:41:15;;;;;;;;;;;;;;;;;;5097288;28;20423;-73
2022/04/15 01:43:41;;;;;;;;;;;;;;;;;;5097707;28;19918;-72
2022/04/15 01:46:07;;;;;;;;;;;;;;;;;;5096767;28;20380;-72
2022/04/15 01:48:33;;;;;;;;;;;;;;;;;;5096999;28;19974;-72
2022/04/15 01:50:59;;;;;;;;;;;;;;;;;;5097065;28;20299;-72
2022/04/15 01:53:25;;;;;;;;;;;;;;;;;;5096686;28;19908;-72
2022/04/15 01:55:51;;;;;;;;;;;;;;;;;;5097044;28;19908;-72
2022/04/15 01:58:17;;;;;;;;;;;;;;;;;;5095758;28;19954;-73
2022/04/15 02:00:43;;;;;;;;;;;;;;;;;;5096827;28;20284;-72
2022/04/15 02:03:09;;;;;;;;;;;;;;;;;;5096864;28;19908;-72
2022/04/15 02:05:35;;;;;;;;;;;;;;;;;;5096583;28;19908;-72
2022/04/15 02:08:01;;;;;;;;;;;;;;;;;;5096632;28;20289;-72
2022/04/15 02:10:27;;;;;;;;;;;;;;;;;;5095487;28;19908;-72
2022/04/15 02:12:53;;;;;;;;;;;;;;;;;;5096238;28;19908;-71
2022/04/15 02:15:19;;;;;;;;;;;;;;;;;;5096884;28;19908;-72
2022/04/15 02:17:45;;;;;;;;;;;;;;;;;;5096516;28;19908;-72
2022/04/15 02:20:11;;;;;;;;;;;;;;;;;;5094755;28;20261;-71
2022/04/15 02:22:37;;;;;;;;;;;;;;;;;;5095219;28;20342;-72
2022/04/15 02:25:03;;;;;;;;;;;;;;;;;;5096542;28;19912;-72
2022/04/15 02:27:29;;;;;;;;;;;;;;;;;;5095892;28;19912;-72
2022/04/15 02:29:55;;;;;;;;;;;;;;;;;;5096710;28;19916;-71
2022/04/15 02:32:21;;;;;;;;;;;;;;;;;;5094975;28;19908;-71
2022/04/15 02:34:47;;;;;;;;;;;;;;;;;;5095878;28;20391;-71
2022/04/15 02:37:13;;;;;;;;;;;;;;;;;;5094845;28;20037;-71
2022/04/15 02:39:39;;;;;;;;;;;;;;;;;;5096085;28;19908;-71
2022/04/15 02:42:05;;;;;;;;;;;;;;;;;;5095920;28;19915;-73
2022/04/15 02:44:31;;;;;;;;;;;;;;;;;;5094696;28;19908;-71
2022/04/15 02:46:58;;;;;;;;;;;;;;;;;;5095976;28;19973;-73
2022/04/15 02:49:24;;;;;;;;;;;;;;;;;;5095518;28;19912;-71
2022/04/15 02:51:50;;;;;;;;;;;;;;;;;;5094532;28;19908;-71
2022/04/15 02:54:16;;;;;;;;;;;;;;;;;;5095882;28;20004;-71
2022/04/15 02:56:42;;;;;;;;;;;;;;;;;;5095446;28;19909;-71
2022/04/15 02:59:08;;;;;;;;;;;;;;;;;;5095763;28;20413;-71
2022/04/15 03:01:34;;;;;;;;;;;;;;;;;;5095694;28;19908;-71
2022/04/15 03:04:00;;;;;;;;;;;;;;;;;;5095217;28;19953;-71
2022/04/15 03:06:26;;;;;;;;;;;;;;;;;;5094308;28;20284;-71
2022/04/15 03:08:54;;;;;;;;;;;;;;;;;;5095226;28;19916;-71
2022/04/15 03:11:20;;;;;;;;;;;;;;;;;;5095492;28;19940;-71
2022/04/15 03:13:46;;;;;;;;;;;;;;;;;;5094166;28;19915;-70
2022/04/15 03:16:12;;;;;;;;;;;;;;;;;;5095092;28;19952;-70
2022/04/15 03:18:38;;;;;;;;;;;;;;;;;;5094003;28;19998;-71
2022/04/15 03:21:04;;;;;;;;;;;;;;;;;;5095775;28;19992;-70
2022/04/15 03:23:30;;;;;;;;;;;;;;;;;;5095161;28;19916;-70
2022/04/15 03:25:56;;;;;;;;;;;;;;;;;;5095675;28;19914;-71
2022/04/15 03:28:22;;;;;;;;;;;;;;;;;;5095119;28;19969;-70
2022/04/15 03:30:48;;;;;;;;;;;;;;;;;;5094716;28;19908;-70
2022/04/15 03:33:14;;;;;;;;;;;;;;;;;;5095073;28;19919;-71
2022/04/15 03:35:40;;;;;;;;;;;;;;;;;;5095023;28;20002;-70
2022/04/15 03:38:06;;;;;;;;;;;;;;;;;;5094817;28;20372;-71
2022/04/15 03:40:32;;;;;;;;;;;;;;;;;;5094961;28;19914;-71
2022/04/15 03:42:58;;;;;;;;;;;;;;;;;;5095047;28;20372;-71
2022/04/15 03:45:25;;;;;;;;;;;;;;;;;;5093217;28;19908;-71
2022/04/15 03:47:51;;;;;;;;;;;;;;;;;;5094689;28;19920;-71
2022/04/15 03:50:17;;;;;;;;;;;;;;;;;;5095088;28;19915;-71
2022/04/15 03:52:46;;;;;;;;;;;;;;;;;;5094349;28;20002;-71
2022/04/15 03:55:12;;;;;;;;;;;;;;;;;;5093422;28;19915;-72
2022/04/15 03:57:38;;;;;;;;;;;;;;;;;;5094036;28;19915;-72
2022/04/15 04:00:04;;;;;;;;;;;;;;;;;;5092947;28;19917;-72
2022/04/15 04:02:30;;;;;;;;;;;;;;;;;;5094527;28;20403;-72
2022/04/15 04:04:56;;;;;;;;;;;;;;;;;;5095069;28;19908;-71
2022/04/15 04:07:22;;;;;;;;;;;;;;;;;;5093993;28;20015;-71
2022/04/15 04:09:48;;;;;;;;;;;;;;;;;;5093252;28;19916;-77
2022/04/15 04:12:14;;;;;;;;;;;;;;;;;;5094239;28;19916;-78
2022/04/15 04:14:40;;;;;;;;;;;;;;;;;;5094751;28;19954;-77
2022/04/15 04:17:06;;;;;;;;;;;;;;;;;;5093258;28;19908;-75
2022/04/15 04:19:32;;;;;;;;;;;;;;;;;;5094069;28;19919;-77
2022/04/15 04:21:58;;;;;;;;;;;;;;;;;;5094248;28;19908;-76
2022/04/15 04:24:24;;;;;;;;;;;;;;;;;;5093043;28;19912;-75
2022/04/15 04:26:50;;;;;;;;;;;;;;;;;;5092635;28;19908;-76
2022/04/15 04:29:16;;;;;;;;;;;;;;;;;;5094298;28;19916;-76
2022/04/15 04:31:42;;;;;;;;;;;;;;;;;;5094177;28;19915;-78
2022/04/15 04:34:08;;;;;;;;;;;;;;;;;;5093820;28;19908;-75
2022/04/15 04:36:34;;;;;;;;;;;;;;;;;;5094186;28;20349;-76
2022/04/15 04:39:00;;;;;;;;;;;;;;;;;;5094398;28;19914;-77
2022/04/15 04:41:26;;;;;;;;;;;;;;;;;;5093785;28;19908;-76
2022/04/15 04:43:52;;;;;;;;;;;;;;;;;;5094275;28;19934;-80
2022/04/15 04:46:18;;;;;;;;;;;;;;;;;;5094127;28;19954;-77
2022/04/15 04:48:44;;;;;;;;;;;;;;;;;;5093456;28;19920;-79
2022/04/15 04:51:10;;;;;;;;;;;;;;;;;;5094371;28;20342;-75
2022/04/15 04:53:36;;;;;;;;;;;;;;;;;;5094538;28;19912;-77
2022/04/15 04:56:02;;;;;;;;;;;;;;;;;;5092679;28;19908;-77
2022/04/15 04:58:28;;;;;;;;;;;;;;;;;;5093973;28;19909;-78
2022/04/15 05:00:54;;;;;;;;;;;;;;;;;;5092784;28;19937;-77
2022/04/15 05:03:20;;;;;;;;;;;;;;;;;;5093665;28;19965;-78
2022/04/15 05:05:46;;;;;;;;;;;;;;;;;;5093822;28;19908;-77
2022/04/15 05:08:12;;;;;;;;;;;;;;;;;;5094396;28;20364;-77
2022/04/15 05:10:39;;;;;;;;;;;;;;;;;;5097259;28;19908;-77
2022/04/15 05:13:05;;;;;;;;;;;;;;;;;;5095502;28;19912;-77
2022/04/15 05:15:31;;;;;;;;;;;;;;;;;;5093185;28;19961;-73
2022/04/15 05:17:57;;;;;;;;;;;;;;;;;;5096733;28;20007;-73
2022/04/15 05:20:23;;;;;;;;;;;;;;;;;;5092629;28;19917;-73
2022/04/15 05:22:49;;;;;;;;;;;;;;;;;;5089693;28;20023;-73
2022/04/15 05:25:15;;;;;;;;;;;;;;;;;;5096302;28;19908;-73
2022/04/15 05:27:41;;;;;;;;;;;;;;;;;;5096756;28;19924;-73
2022/04/15 05:30:07;;;;;;;;;;;;;;;;;;5095650;28;20006;-73
2022/04/15 05:32:33;;;;;;;;;;;;;;;;;;5094916;28;19926;-74
2022/04/15 05:34:59;;;;;;;;;;;;;;;;;;5095491;28;19912;-73
2022/04/15 05:37:25;;;;;;;;;;;;;;;;;;5095398;28;19952;-73
2022/04/15 05:39:51;;;;;;;;;;;;;;;;;;5088944;28;19930;-74
2022/04/15 05:42:17;;;;;;;;;;;;;;;;;;5092552;28;19920;-76
2022/04/15 05:44:43;;;;;;;;;;;;;;;;;;5092369;28;19961;-75
2022/04/15 05:47:09;;;;;;;;;;;;;;;;;;5095974;28;19927;-74
2022/04/15 05:49:35;;;;;;;;;;;;;;;;;;5094824;28;19908;-74
2022/04/15 05:52:01;;;;;;;;;;;;;;;;;;5095129;28;19915;-77
2022/04/15 05:54:27;;;;;;;;;;;;;;;;;;5096540;28;20291;-74
2022/04/15 05:56:53;;;;;;;;;;;;;;;;;;5094700;28;19912;-77
2022/04/15 05:59:22;;;;;;;;;;;;;;;;;;5108882;28;20279;-77
2022/04/15 06:01:48;;;;;;;;;;;;;;;;;;5115743;28;20396;-73
2022/04/15 06:04:14;;;;;;;;;;;;;;;;;;5098109;28;19916;-75
2022/04/15 06:06:40;;;;;;;;;;;;;;;;;;5096399;28;20261;-75
2022/04/15 06:09:06;;;;;;;;;;;;;;;;;;5090217;28;19920;-74
2022/04/15 06:11:32;;;;;;;;;;;;;;;;;;5091526;28;19909;-75
2022/04/15 06:14:00;;;;;;;;;;;;;;;;;;5083161;28;19919;-73
2022/04/15 06:16:31;;;;;;;;;;;;;;;;;;5075054;28;19931;-71
2022/04/15 06:18:57;;;;;;;;;;;;;;;;;;5075337;28;19915;-73
2022/04/15 06:21:23;;;;;;;;;;;;;;;;;;5093991;28;20014;-74
2022/04/15 06:23:49;;;;;;;;;;;;;;;;;;5095149;28;19957;-74
2022/04/15 06:26:15;;;;;;;;;;;;;;;;;;5093130;28;19999;-73
2022/04/15 06:28:41;;;;;;;;;;;;;;;;;;5095672;28;19920;-73
2022/04/15 06:31:08;;;;;;;;;;;;;;;;;;5113547;28;19915;-73
2022/04/15 06:33:34;;;;;;;;;;;;;;;;;;5108648;28;19920;-73
2022/04/15 06:36:00;;;;;;;;;;;;;;;;;;5094053;28;19930;-76
2022/04/15 06:38:26;;;;;;;;;;;;;;;;;;5095093;28;20275;-77
2022/04/15 06:40:52;;;;;;;;;;;;;;;;;;5094501;28;20258;-77
2022/04/15 06:43:18;;;;;;;;;;;;;;;;;;5095033;28;19947;-76
2022/04/15 06:45:44;;;;;;;;;;;;;;;;;;5093978;28;19922;-76
2022/04/15 06:48:10;;;;;;;;;;;;;;;;;;5091503;28;19924;-75
2022/04/15 06:50:36;;;;;;;;;;;;;;;;;;5093079;28;19947;-76
2022/04/15 06:53:02;;;;;;;;;;;;;;;;;;5094767;28;19955;-78
2022/04/15 06:55:28;;;;;;;;;;;;;;;;;;5094160;28;20360;-78
2022/04/15 06:57:54;;;;;;;;;;;;;;;;;;5094828;28;19912;-77
2022/04/15 07:00:20;;;;;;;;;;;;;;;;;;5094721;28;19977;-75
2022/04/15 07:02:46;;;;;;;;;;;;;;;;;;5094506;28;20299;-76
2022/04/15 07:05:12;;;;;;;;;;;;;;;;;;5093565;28;19998;-74
2022/04/15 07:07:38;;;;;;;;;;;;;;;;;;5093779;28;19917;-76
2022/04/15 07:10:04;;;;;;;;;;;;;;;;;;5094013;28;19913;-75
2022/04/15 07:12:30;;;;;;;;;;;;;;;;;;5090831;28;19908;-75
2022/04/15 07:14:57;;;;;;;;;;;;;;;;;;5087628;28;19931;-75
2022/04/15 07:17:23;;;;;;;;;;;;;;;;;;5087631;28;19999;-77
2022/04/15 07:21:21;;;;;;;;;;;;;;;;;;5070137;27;19927;-77
2022/04/15 07:23:47;;;;;;;;;;;;;;;;;;5068974;28;19916;-76
2022/04/15 07:26:13;;;;;;;;;;;;;;;;;;5069542;28;19962;-76
2022/04/15 07:28:39;;;;;;;;;;;;;;;;;;5075075;28;19923;-75
2022/04/15 07:31:05;;;;;;;;;;;;;;;;;;5090242;28;19973;-73
2022/04/15 07:33:31;;;;;;;;;;;;;;;;;;5090367;28;19909;-74
2022/04/15 07:37:32;;;;;;;;;;;;;;;;;;5089756;27;19922;-76
2022/04/15 07:39:58;;;;;;;;;;;;;;;;;;5089307;28;19912;-73
2022/04/15 07:42:24;;;;;;;;;;;;;;;;;;5088888;28;19912;-73
2022/04/15 07:44:50;;;;;;;;;;;;;;;;;;5088036;28;20335;-74
2022/04/15 07:47:16;;;;;;;;;;;;;;;;;;5089622;28;19913;-75
2022/04/15 07:49:42;;;;;;;;;;;;;;;;;;5089295;28;19912;-73
2022/04/15 07:52:40;;;;;;;;;;;;;;;;;;5090629;27;19916;-76
2022/04/15 07:55:06;;;;;;;;;;;;;;;;;;5090090;28;20003;-76
2022/04/15 07:58:04;;;;;;;;;;;;;;;;;;5087941;27;19939;-76
2022/04/15 08:00:34;;;;;;;;;;;;;;;;;;5089294;28;19958;-74
2022/04/15 08:03:00;;;;;;;;;;;;;;;;;;5090112;28;19915;-73
2022/04/15 08:05:26;;;;;;;;;;;;;;;;;;5089469;28;20472;-74
2022/04/15 08:07:52;;;;;;;;;;;;;;;;;;5090110;28;19938;-75
2022/04/15 08:10:18;;;;;;;;;;;;;;;;;;5086320;28;19947;-74
2022/04/15 08:12:45;;;;;;;;;;;;;;;;;;5066482;28;19913;-74
2022/04/15 08:17:05;;;;;;;;;;;;;;;;;;5087033;27;19920;-76
2022/04/15 08:23:47;;;;;;;;;;;;;;;;;;5107724;27;19916;-73
2022/04/15 08:27:28;;;;;;;;;;;;;;;;;;5151565;27;20317;-73
2022/04/15 08:32:16;;;;;;;;;;;;;;;;;;5149120;27;19912;-76
2022/04/15 08:34:42;;;;;;;;;;;;;;;;;;5151410;27;20231;-76
2022/04/15 08:37:17;;;;;;;;;;;;;;;;;;5090757;27;19922;-75
2022/04/15 08:45:21;;;;;;;;;;;;;;;;;;5089849;27;19916;-72
2022/04/15 08:47:47;;;;;;;;;;;;;;;;;;5089729;28;19916;-72
2022/04/15 08:51:45;;;;;;;;;;;;;;;;;;5100204;27;19920;-73
2022/04/15 08:54:12;;;;;;;;;;;;;;;;;;5089900;28;19940;-73
2022/04/15 08:56:39;;;;;;;;;;;;;;;;;;5090078;28;19954;-72
2022/04/15 09:04:02;;;;;;;;;;;;;;;;;;5094147;27;19920;-71
2022/04/15 09:06:28;;;;;;;;;;;;;;;;;;5090475;28;20012;-74
2022/04/15 09:11:33;;;;;;;;;;;;;;;;;;5152277;27;20001;-77
2022/04/15 09:13:59;;;;;;;;;;;;;;;;;;5132326;27;19917;-75
2022/04/15 09:16:25;;;;;;;;;;;;;;;;;;5151915;27;19955;-75
2022/04/15 09:19:15;;;;;;;;;;;;;;;;;;5089544;27;19973;-77
2022/04/15 09:22:43;;;;;;;;;;;;;;;;;;5087018;27;19931;-75
2022/04/15 09:25:09;;;;;;;;;;;;;;;;;;5069264;28;20016;-76
2022/04/15 09:27:38;;;;;;;;;;;;;;;;;;5085253;28;19966;-75
2022/04/15 09:30:04;;;;;;;;;;;;;;;;;;5087199;28;19908;-75
2022/04/15 09:35:01;;;;;;;;;;;;;;;;;;5069857;27;19917;-74
2022/04/15 09:37:27;;;;;;;;;;;;;;;;;;5068542;28;19958;-73
2022/04/15 09:41:33;;;;;;;;;;;;;;;;;;5070911;27;19921;-76
2022/04/15 09:43:59;;;;;;;;;;;;;;;;;;5069747;28;19999;-74
2022/04/15 09:46:29;;;;;;;;;;;;;;;;;;5069876;28;19954;-73
2022/04/15 09:52:51;;;;;;;;;;;;;;;;;;5071860;28;20385;-81
2022/04/15 09:55:17;;;;;;;;;;;;;;;;;;5070772;28;20423;-79
2022/04/15 09:58:31;;;;;;;;;;;;;;;;;;5070123;27;19917;-77
2022/04/15 10:01:56;;;;;;;;;;;;;;;;;;5072411;27;19921;-75
2022/04/15 10:05:04;;;;;;;;;;;;;;;;;;5090758;27;19920;-79
2022/04/15 10:09:56;;;;;;;;;;;;;;;;;;5088325;27;19916;-77
2022/04/15 10:12:22;;;;;;;;;;;;;;;;;;5070125;28;19920;-75
2022/04/15 10:14:48;;;;;;;;;;;;;;;;;;5069571;28;19909;-76
2022/04/15 10:17:17;;;;;;;;;;;;;;;;;;5069242;28;19920;-74
2022/04/15 10:19:43;;;;;;;;;;;;;;;;;;5069590;28;19913;-73
2022/04/15 10:22:09;;;;;;;;;;;;;;;;;;5069881;28;20419;-76
2022/04/15 10:25:55;;;;;;;;;;;;;;;;;;5107887;27;19950;-74
2022/04/15 10:30:19;;;;;;;;;;;;;;;;;;5131590;27;20358;-78
2022/04/15 10:32:45;;;;;;;;;;;;;;;;;;5121222;28;19912;-77
2022/04/15 10:35:11;;;;;;;;;;;;;;;;;;5117906;28;19998;-74
2022/04/15 10:37:37;;;;;;;;;;;;;;;;;;5128635;28;19908;-77
2022/04/15 10:40:03;;;;;;;;;;;;;;;;;;5117991;27;19969;-77
2022/04/15 10:42:29;;;;;;;;;;;;;;;;;;5116072;27;19928;-75
2022/04/15 10:44:55;;;;;;;;;;;;;;;;;;5126397;28;20390;-75
2022/04/15 10:47:22;;;;;;;;;;;;;;;;;;5130645;27;19908;-75
2022/04/15 10:49:48;;;;;;;;;;;;;;;;;;5113070;27;19927;-75
2022/04/15 10:52:14;;;;;;;;;;;;;;;;;;5110989;28;19915;-76
2022/04/15 10:54:45;;;;;;;;;;;;;;;;;;5111018;28;19965;-74
2022/04/15 10:57:11;;;;;;;;;;;;;;;;;;5125289;27;19911;-75
2022/04/15 11:02:22;;;;;;;;;;;;;;;;;;5110917;28;20276;-76
2022/04/15 11:04:49;;;;;;;;;;;;;;;;;;5128828;28;19908;-74
2022/04/15 11:07:15;;;;;;;;;;;;;;;;;;5127733;27;20023;-76
2022/04/15 11:09:41;;;;;;;;;;;;;;;;;;5128942;27;19927;-76
2022/04/15 11:12:50;;;;;;;;;;;;;;;;;;5090076;27;19947;-76
2022/04/15 11:15:18;;;;;;;;;;;;;;;;;;5089384;28;20317;-77
2022/04/15 11:17:44;;;;;;;;;;;;;;;;;;5090597;28;19909;-75
2022/04/15 11:20:10;;;;;;;;;;;;;;;;;;5088901;28;19931;-76
2022/04/15 11:22:36;;;;;;;;;;;;;;;;;;5088906;28;19935;-76
2022/04/15 11:25:02;;;;;;;;;;;;;;;;;;5088059;28;19909;-77
2022/04/15 11:27:28;;;;;;;;;;;;;;;;;;5085622;28;20030;-73
2022/04/15 11:31:03;;;;;;;;;;;;;;;;;;5086173;28;19927;-74
2022/04/15 11:33:29;;;;;;;;;;;;;;;;;;5087636;28;19958;-76
2022/04/15 11:35:55;;;;;;;;;;;;;;;;;;5089396;28;19948;-78
2022/04/15 11:38:21;;;;;;;;;;;;;;;;;;5092029;28;19943;-79
2022/04/15 11:40:47;;;;;;;;;;;;;;;;;;5090691;28;20284;-81
2022/04/15 11:43:13;;;;;;;;;;;;;;;;;;5090259;28;19995;-74
2022/04/15 11:45:39;;;;;;;;;;;;;;;;;;5090538;28;19930;-78
2022/04/15 11:48:05;;;;;;;;;;;;;;;;;;5090893;28;19908;-75
2022/04/15 11:50:31;;;;;;;;;;;;;;;;;;5090289;28;19916;-70
2022/04/15 11:52:57;;;;;;;;;;;;;;;;;;5090861;28;19909;-72
2022/04/15 11:55:24;;;;;;;;;;;;;;;;;;5090810;28;19912;-73
2022/04/15 11:57:50;;;;;;;;;;;;;;;;;;5088039;28;20270;-73
2022/04/15 12:00:17;;;;;;;;;;;;;;;;;;5090721;28;19909;-74
2022/04/15 12:02:43;;;;;;;;;;;;;;;;;;5090689;28;20320;-73
2022/04/15 12:05:09;;;;;;;;;;;;;;;;;;5088927;28;20311;-73
2022/04/15 12:07:35;;;;;;;;;;;;;;;;;;5090474;28;19908;-73
2022/04/15 12:10:03;;;;;;;5.25;3.00;;;;;;;;;;5089788;28;20434;-73
2022/04/15 12:12:30;;;;;;;5.10;2.35;;;;;;;;;;5088390;28;20058;-72
2022/04/15 12:14:57;;;;;;;5.07;3.03;;;;;;;;;;5090060;28;20396;-73
2022/04/15 12:17:24;;;;;;;4.53;2.80;;;;;;;;;;5088491;28;20028;-75
2022/04/15 12:19:50;;;;;;;6.82;2.88;;;;;;;;;;5089641;28;20052;-73
2022/04/15 12:22:17;;;;;;;5.75;2.65;;;;;;;;;;5088491;28;20528;-73
2022/04/15 12:24:43;;;;;;;4.30;2.33;;;;;;;;;;5089388;28;20032;-72
2022/04/15 12:27:11;;;;;;;3.60;1.77;;;;;;;;;;5089745;28;20081;-73
2022/04/15 12:29:51;;;;;;;4.90;1.90;;;;;;;;;;5087617;28;20055;-70
2022/04/15 12:32:23;;;;;;;4.95;2.03;;;;;;;;;;5089232;28;20035;-72
2022/04/15 12:35:10;;;;;;;3.60;1.98;;;;;;;;;;5089715;28;20458;-76
2022/04/15 12:37:38;;;;;;;4.72;1.95;;;;;;;;;;5065621;28;20029;-73
2022/04/15 12:40:10;;;;;;;2.50;1.63;;;;;;;;;;5068990;28;20033;-72
2022/04/15 12:42:37;;;;;;;2.63;1.40;;;;;;;;;;5055741;28;20500;-72
2022/04/15 12:45:10;;;;;;;3.75;1.70;;;;;;;;;;5056141;28;20544;-71
2022/04/15 12:47:37;;;;;;;2.90;1.70;;;;;;;;;;5054394;28;20036;-71
2022/04/15 12:50:36;;;;;;;4.60;1.92;;;;;;;;;;5055923;28;20140;-71
2022/04/15 12:53:23;;;;;;;5.72;2.22;;;;;;;;;;5048998;28;20039;-71
2022/04/15 12:55:50;;;;;;;6.80;2.97;;;;;;;;;;5056136;28;20508;-71
2022/04/15 12:58:21;;;;;;;7.07;5.18;;;;;;;;;;5055946;28;20435;-72
2022/04/15 13:00:50;;;;;;;4.75;2.38;;;;;;;;;;5055488;28;20385;-73
2022/04/15 13:03:17;;;;;;;2.90;1.58;;;;;;;;;;5055769;28;20354;-73
2022/04/15 13:05:47;;;;;;;3.42;1.65;;;;;;;;;;5054483;28;20179;-72
2022/04/15 13:08:15;;;;;;;4.10;1.75;;;;;;;;;;5055361;28;20032;-72
2022/04/15 13:10:42;;;;;;;3.10;1.65;;;;;;;;;;5055533;28;20163;-71
2022/04/15 13:13:08;;;;;;;4.13;1.90;;;;;;;;;;5054327;28;20029;-72
2022/04/15 13:15:34;;;;;;;2.50;1.50;;;;;;;;;;5055268;28;20021;-72
2022/04/15 13:18:00;;;;;;;2.63;1.42;;;;;;;;;;5055533;28;20478;-72
2022/04/15 13:20:27;;;;;;;3.35;1.30;;;;;;;;;;5055455;28;20025;-72
2022/04/15 13:22:56;;;;;;;3.10;1.23;;;;;;;;;;5053659;28;20059;-72
2022/04/15 13:25:23;;;;;;;4.50;1.30;;;;;;;;;;5055571;28;20067;-72
2022/04/15 13:27:49;;;;;;;3.10;1.20;;;;;;;;;;5054978;28;20052;-72
2022/04/15 13:30:16;;;;;;;2.47;1.50;;;;;;;;;;5053704;28;20053;-72
2022/04/15 13:32:42;;;;;;;2.17;1.20;;;;;;;;;;5055252;28;20056;-72
2022/04/15 13:35:09;;;;;;;2.58;1.40;;;;;;;;;;5054738;28;20386;-72
2022/04/15 13:37:35;;;;;;;2.58;1.40;;;;;;;;;;5055111;28;20024;-72
2022/04/15 13:40:02;;;;;;;3.13;1.40;;;;;;;;;;5055025;28;20054;-72
2022/04/15 13:42:28;;;;;;;2.63;1.48;;;;;;;;;;5054811;28;20074;-72
2022/04/15 13:44:55;;;;;;;2.80;1.38;;;;;;;;;;5055038;28;20024;-72
2022/04/15 13:47:21;;;;;;;2.95;1.23;;;;;;;;;;5054936;28;20028;-72
2022/04/15 13:49:48;;;;;;;1.80;0.98;;;;;;;;;;5054480;28;20029;-71
2022/04/15 13:57:51;;;;;;;4.88;1.40;;;;;;;;;;5054744;28;20119;-72
2022/04/15 14:00:18;;;;;;;4.15;1.90;;;;;;;;;;5054707;28;20032;-72
2022/04/15 14:02:45;;;;;;;2.58;1.42;;;;;;;;;;5054700;28;20017;-72
2022/04/15 14:05:12;;;;;;;2.70;1.40;;;;;;;;;;5054233;28;20036;-72
2022/04/15 14:07:38;;;;;;;2.78;1.65;;;;;;;;;;5054497;28;20025;-72
2022/04/15 14:10:04;;;;;;;3.00;1.38;;;;;;;;;;5051500;28;20498;-71
2022/04/15 14:12:31;;;;;;;3.30;1.25;;;;;;;;;;5053132;28;20075;-71
2022/04/15 14:14:58;;;;;;;1.70;1.00;;;;;;;;;;5054292;28;20029;-72
2022/04/15 14:17:24;;;;;;;3.75;1.23;;;;;;;;;;5054176;28;20128;-71
2022/04/15 14:19:50;;;;;;;1.92;0.90;;;;;;;;;;5052826;28;20108;-71
2022/04/15 14:22:19;;;;;;;3.15;1.33;;;;;;;;;;5054212;28;20033;-71
2022/04/15 14:24:45;;;;;;;1.92;0.90;;;;;;;;;;5054119;28;20412;-71
2022/04/15 14:27:12;;;;;;;2.35;1.30;;;;;;;;;;5054120;28;20048;-71
2022/04/15 14:29:39;;;;;;;1.70;1.00;;;;;;;;;;5053838;28;20102;-72
2022/04/15 14:32:06;;;;;;;2.17;1.15;;;;;;;;;;5053823;28;20052;-71
2022/04/15 14:34:32;;;;;;;2.20;1.10;;;;;;;;;;5053960;28;20443;-71
2022/04/15 14:36:58;;;;;;;2.50;1.10;;;;;;;;;;5052218;28;20045;-71
2022/04/15 14:39:24;;;;;;;2.38;1.00;;;;;;;;;;5053474;28;20021;-70
2022/04/15 14:41:51;;;;;;;1.88;1.10;;;;;;;;;;5053973;28;20075;-71
2022/04/15 14:44:17;;;;;;;2.53;1.17;;;;;;;;;;5052303;28;20504;-71
2022/04/15 14:46:43;;;;;;;2.35;1.00;;;;;;;;;;5052915;28;20033;-71
2022/04/15 14:49:09;;;;;;;1.88;1.02;;;;;;;;;;5053665;28;20025;-71
2022/04/15 14:51:36;;;;;;;1.45;1.00;;;;;;;;;;5053450;28;20492;-71
2022/04/15 14:54:02;;;;;;;1.48;0.90;;;;;;;;;;5053136;28;20027;-72
2022/04/15 14:56:28;;;;;;;3.85;1.00;;;;;;;;;;5053596;28;20036;-71
2022/04/15 14:58:54;;;;;;;1.88;0.90;;;;;;;;;;5053924;28;20075;-72
2022/04/15 15:01:20;;;;;;;2.55;1.17;;;;;;;;;;5053247;28;20159;-72
2022/04/15 15:03:47;;;;;;;3.25;1.02;;;;;;;;;;5053437;28;20091;-72
2022/04/15 15:06:14;;;;;;;4.32;1.23;;;;;;;;;;5053143;28;20033;-71
2022/04/15 15:08:40;;;;;;;2.85;1.33;;;;;;;;;;5053615;28;20017;-71
2022/04/15 15:11:09;;;;;;;2.95;1.10;;;;;;;;;;5052224;28;20040;-72
2022/04/15 15:13:37;;;;;;;2.72;1.20;;;;;;;;;;5053145;28;20096;-71
2022/04/15 15:16:04;;;;;;;2.17;1.00;;;;;;;;;;5052145;28;20552;-71
2022/04/15 15:18:33;;;;;;;3.63;1.23;;;;;;;;;;5053406;28;20029;-71
2022/04/15 15:21:00;;;;;;;2.88;1.30;;;;;;;;;;5053015;28;20020;-71
2022/04/15 15:23:27;;;;;;;2.40;0.93;;;;;;;;;;5053392;28;20024;-70
2022/04/15 15:31:22;;;;;;;2.63;1.40;;;;;;;;;;5053467;28;20136;-70
2022/04/15 15:33:49;;;;;;;2.28;1.05;;;;;;;;;;5051921;28;20037;-70
2022/04/15 15:36:15;;;;;;;2.00;1.10;;;;;;;;;;5052847;28;20482;-71
2022/04/15 15:38:45;;;;;;;4.00;1.10;;;;;;;;;;5051830;28;20380;-72
2022/04/15 15:41:15;;;;;;;2.38;1.13;;;;;;;;;;5053070;28;20071;-72
2022/04/15 15:43:42;;;;;;;2.42;0.98;;;;;;;;;;5052616;28;20021;-72
2022/04/15 15:46:08;;;;;;;3.30;1.13;;;;;;;;;;5052983;28;20036;-72
2022/04/15 15:48:34;;;;;;;2.15;1.08;;;;;;;;;;5053035;28;20017;-71
2022/04/15 15:51:00;;;;;;;2.78;1.15;;;;;;;;;;5052615;28;20033;-72
2022/04/15 15:53:27;;;;;;;3.47;1.45;;;;;;;;;;5053197;28;20052;-70
2022/04/15 15:55:54;;;;;;;1.83;1.05;;;;;;;;;;5052733;28;20404;-73
2022/04/15 15:58:20;;;;;;;3.00;1.63;;;;;;;;;;5052941;28;20021;-72
2022/04/15 16:00:47;;;;;;;2.55;1.25;;;;;;;;;;5051741;28;20025;-72
2022/04/15 16:03:14;;;;;;;1.40;1.00;;;;;;;;;;5052519;28;20021;-71
2022/04/15 16:05:41;;;;;;;2.63;1.48;;;;;;;;;;5052888;28;20489;-72
2022/04/15 16:08:07;;;;;;;2.80;1.20;;;;;;;;;;5052923;28;20420;-72
2022/04/15 16:10:34;;;;;;;3.78;1.75;;;;;;;;;;5052486;28;20029;-72
2022/04/15 16:13:01;;;;;;;3.95;1.45;;;;;;;;;;5052875;28;20419;-73
2022/04/15 16:15:27;;;;;;;4.22;2.42;;;;;;;;;;5052842;28;20024;-72
2022/04/15 16:17:54;;;;;;;6.15;2.15;;;;;;;;;;5056422;28;20375;-71
2022/04/15 16:20:21;;;;;;;3.50;1.55;;;;;;;;;;5056722;28;20428;-71
2022/04/15 16:22:47;;;;;;;3.38;1.40;;;;;;;;;;5056340;28;20021;-71
2022/04/15 16:25:13;;;;;;;3.70;1.85;;;;;;;;;;5056053;28;20025;-70
2022/04/15 16:27:41;;;;;;;6.10;2.47;;;;;;;;;;5055073;28;20017;-70
2022/04/15 16:30:09;;;;;;;7.38;2.55;;;;;;;;;;5056060;28;20393;-70
2022/04/15 16:32:36;;;;;;;5.60;2.40;;;;;;;;;;5055780;28;20017;-72
2022/04/15 16:35:02;;;;;;;8.90;3.95;;;;;;;;;;5054956;28;20033;-71
2022/04/15 16:37:28;;;;;;;10.38;5.20;;;;;;;;;;5056178;28;20193;-71
2022/04/15 16:39:55;;;;;;;15.23;6.85;;;;;;;;;;5055747;28;20079;-72
2022/04/15 16:42:22;;;;;;;16.00;8.27;;;;;;;;;;5055920;28;20017;-72
2022/04/15 16:44:48;;;;;;;9.00;4.28;;;;;;;;;;5055834;28;20032;-72
2022/04/15 16:48:52;;;;;;;;;;;;;;;;;;5111677;27;20401;-72
2022/04/15 16:51:18;;;;;;;;;;;;;;;;;;5111628;28;19976;-72
2022/04/15 16:53:44;;;;;;;;;;;;;;;;;;5111205;28;19929;-72
2022/04/15 16:58:55;;;;;;;;;;;;;;;;;;5111405;28;19957;-72
2022/04/15 17:01:21;;;;;;;;;;;;;;;;;;5111328;28;20310;-71
2022/04/15 17:03:47;;;;;;;;;;;;;;;;;;5111454;28;19911;-71
2022/04/15 17:06:13;;;;;;;;;;;;;;;;;;5110982;28;19904;-71
2022/04/15 17:08:39;;;;;;;;;;;;;;;;;;5111189;28;19919;-70
2022/04/15 17:11:58;;;;;;;;;;;;;;;;;;5111924;27;19916;-71